Latest Weather Observations for Kowanyama

IDQ60801

Issued at 8:32 pm EST Sunday 25 June 2017 (issued every 30 minutes, with the page automatically refreshed every 10 minutes)

About weather observations | Map of weather stations | Latest weather observations for QLD | Other Formats
Station Details ID: 029038 Name: KOWANYAMA AIRPORT Lat: -15.48 Lon: 141.75 Height: 9.6 m
Data from the previous 72 hours. | See also: Recent months at Kowanyama
Date/Time
EST
Temp
°C
App
Temp
°C
Dew
Point
°C
Rel
Hum
%
Delta-T
°C
Wind Press
QNH
hPa
Press
MSL
hPa
Rain since
9am
mm
Dir  Spd
km/h
Gust
km/h
Spd
kts
Gust
kts
25/08:30pm 22.1 23.5 17.9 77 2.6 SW 7 9 4 5 1013.7 1013.7 0.0
25/08:00pm 22.9 24.2 17.6 72 3.3 SW 7 11 4 6 1013.5 1013.5 0.0
25/07:30pm 23.4 24.5 17.2 68 3.8 WSW 7 11 4 6 1013.1 1013.1 0.0
25/07:00pm 24.3 24.6 17.1 64 4.5 WSW 11 15 6 8 1012.7 1012.7 0.0
25/06:30pm 25.3 25.2 17.0 60 5.1 W 13 17 7 9 1012.4 1012.3 0.0
25/06:00pm 28.0 28.5 13.9 42 8.4 SE 4 6 2 3 1012.1 1012.0 0.0
25/05:30pm 29.6 28.7 12.5 35 10.0 E 9 13 5 7 1011.8 1011.7 0.0
25/05:00pm 30.2 28.8 12.1 32 10.6 ESE 11 15 6 8 1011.6 1011.5 0.0
25/04:30pm 30.5 28.7 11.0 30 11.2 SE 11 17 6 9 1011.5 1011.4 0.0
25/04:00pm 31.1 29.5 11.5 30 11.4 ENE 11 19 6 10 1011.5 1011.4 0.0
25/03:30pm 30.8 28.9 11.7 31 11.1 E 13 19 7 10 1011.5 1011.4 0.0
25/03:00pm 32.0 30.3 12.3 30 11.7 NE 13 22 7 12 1011.5 1011.4 0.0
25/02:30pm 31.2 29.4 12.1 31 11.2 ESE 13 22 7 12 1011.7 1011.6 0.0
25/02:00pm 30.0 27.2 11.5 32 10.7 ESE 17 26 9 14 1012.2 1012.1 0.0
25/01:30pm 29.9 27.9 12.8 35 10.1 ESE 15 24 8 13 1012.5 1012.4 0.0
25/01:00pm 29.2 26.9 13.0 37 9.6 SE 17 26 9 14 1012.9 1012.9 0.0
25/12:30pm 28.9 27.1 13.2 38 9.3 E 15 24 8 13 1013.4 1013.4 0.0
25/12:00pm 28.8 26.9 14.2 40 8.8 ESE 17 24 9 13 1013.9 1013.9 0.0
25/11:30am 27.7 25.5 15.0 45 7.7 ESE 20 28 11 15 1014.2 1014.2 0.0
25/11:00am 26.9 25.1 15.6 50 6.9 ESE 19 24 10 13 1014.6 1014.6 0.0
25/10:30am 26.1 24.7 15.5 52 6.4 ESE 17 24 9 13 1014.8 1014.8 0.0
25/10:00am 25.7 24.7 15.7 54 6.1 E 15 20 8 11 1015.0 1015.0 0.0
25/09:30am 24.2 22.9 15.7 59 5.1 ESE 17 22 9 12 1015.2 1015.2 0.0
25/09:00am 22.8 22.0 16.1 66 4.1 ESE 15 20 8 11 1015.2 1015.2 0.0
25/08:30am 21.4 21.0 16.1 72 3.2 ESE 13 20 7 11 1015.1 1015.1 0.0
25/08:00am 19.6 20.5 16.6 83 1.8 ESE 7 9 4 5 1014.8 1014.8 0.0
25/07:30am 16.9 17.3 15.2 90 1.0 SE 7 7 4 4 1014.5 1014.5 0.0
25/07:00am 16.8 17.5 15.7 93 0.6 E 6 9 3 5 1014.2 1014.2 0.0
25/06:30am 16.3 17.9 14.8 91 0.9 CALM 0 0 0 0 1014.0 1014.0 0.0
25/06:00am 16.5 18.0 14.7 89 1.0 CALM 0 0 0 0 1013.9 1013.9 0.0
25/05:30am 16.9 18.5 14.9 88 1.2 CALM 0 0 0 0 1013.8 1013.8 0.0
25/05:00am 17.3 18.9 14.9 86 1.4 CALM 0 0 0 0 1013.7 1013.7 0.0
25/04:30am 18.0 18.8 15.8 87 1.3 E 6 7 3 4 1013.6 1013.6 0.0
25/04:00am 18.6 20.4 15.5 82 1.8 CALM 0 0 0 0 1013.6 1013.6 0.0
25/03:30am 19.7 20.5 15.8 78 2.3 ESE 6 6 3 3 1013.8 1013.8 0.0
25/03:00am 19.4 21.1 16.2 82 1.9 NE 2 7 1 4 1013.9 1013.9 0.0
25/02:30am 19.3 21.4 16.3 83 1.8 CALM 0 0 0 0 1014.0 1014.0 0.0
25/02:00am 19.7 21.9 16.5 82 1.9 CALM 0 0 0 0 1014.1 1014.1 0.0
25/01:30am 20.4 22.6 16.6 79 2.3 CALM 0 0 0 0 1014.0 1014.0 0.0
25/01:00am 21.4 22.5 16.6 74 2.9 ENE 6 9 3 5 1014.0 1014.0 0.0
25/12:30am 20.3 21.4 17.1 82 1.9 E 7 9 4 5 1013.9 1013.9 0.0
25/12:00am 20.3 22.1 17.5 84 1.7 NW 4 9 2 5 1013.6 1013.6 0.0
 
Date/Time
EST
Temp
°C
App
Temp
°C
Dew
Point
°C
Rel
Hum
%
Delta-T
°C
Wind Press
QNH
hPa
Press
MSL
hPa
Rain since
9am
mm
Dir  Spd
km/h
Gust
km/h
Spd
kts
Gust
kts
24/11:30pm 21.2 23.8 17.6 80 2.2 CALM 0 0 0 0 1013.5 1013.5 0.0
24/11:00pm 21.7 24.4 17.7 78 2.5 CALM 0 0 0 0 1013.7 1013.7 0.0
24/10:30pm 22.5 25.1 17.4 73 3.1 CALM 0 0 0 0 1013.5 1013.5 0.0
24/10:00pm 22.5 25.0 17.2 72 3.3 CALM 0 0 0 0 1013.6 1013.6 0.0
24/09:30pm 23.0 24.5 17.7 72 3.3 WSW 6 7 3 4 1013.5 1013.5 0.0
24/09:00pm 23.3 25.0 18.0 72 3.3 SW 6 9 3 5 1013.4 1013.4 0.0
24/08:30pm 23.4 24.9 18.1 72 3.3 WSW 7 9 4 5 1013.2 1013.2 0.0
24/08:00pm 23.6 24.7 18.0 71 3.5 W 9 11 5 6 1012.8 1012.8 0.0
24/07:30pm 24.1 25.0 17.6 67 4.0 WSW 9 13 5 7 1012.5 1012.4 0.0
24/07:00pm 24.8 24.7 17.0 62 4.8 WNW 13 17 7 9 1012.2 1012.1 0.0
24/06:30pm 26.8 27.1 13.5 44 7.8 ESE 4 9 2 5 1011.9 1011.8 0.0
24/06:00pm 27.7 27.4 13.3 41 8.5 ESE 7 9 4 5 1011.7 1011.6 0.0
24/05:30pm 28.0 27.5 12.8 39 8.9 E 7 9 4 5 1011.6 1011.5 0.0
24/05:00pm 28.7 26.8 11.7 35 9.8 ESE 13 19 7 10 1011.4 1011.3 0.0
24/04:30pm 28.0 27.8 13.1 39 8.8 E 6 9 3 5 1011.3 1011.2 0.0
24/04:00pm 28.5 27.3 12.8 38 9.2 ESE 11 15 6 8 1011.2 1011.1 0.0
24/03:30pm 28.5 27.5 12.4 37 9.4 ESE 9 19 5 10 1011.3 1011.2 0.0
24/03:00pm 29.8 28.2 12.7 35 10.1 E 13 20 7 11 1011.5 1011.4 0.0
24/02:30pm 29.9 28.9 12.3 33 10.3 E 9 17 5 9 1011.7 1011.6 0.0
24/02:00pm 28.9 26.9 12.8 37 9.5 ESE 15 24 8 13 1011.9 1011.8 0.0
24/01:30pm 29.2 25.7 12.2 35 9.9 SE 22 28 12 15 1012.3 1012.2 0.0
24/01:00pm 27.9 25.1 12.7 39 8.9 ESE 19 28 10 15 1012.8 1012.8 0.0
24/12:30pm 29.0 27.4 14.0 39 9.0 E 15 20 8 11 1013.3 1013.3 0.0
24/12:00pm 28.4 26.4 13.9 41 8.7 ESE 17 28 9 15 1013.7 1013.7 0.0
24/11:30am 28.4 26.8 15.0 44 8.1 ENE 17 28 9 15 1014.2 1014.2 0.0
24/11:00am 26.7 25.4 14.8 48 7.2 E 15 24 8 13 1014.5 1014.5 0.0
24/10:30am 26.4 24.9 15.4 50 6.7 ENE 17 26 9 14 1014.7 1014.7 0.0
24/10:00am 25.4 24.3 15.4 54 6.0 E 15 22 8 12 1015.1 1015.1 0.0
24/09:30am 24.3 22.3 15.5 58 5.3 E 20 32 11 17 1015.2 1015.2 0.0
24/09:00am 23.0 22.1 15.8 64 4.3 E 15 20 8 11 1015.1 1015.1 0.0
24/08:30am 21.0 21.8 16.4 75 2.8 E 7 13 4 7 1014.9 1014.9 0.0
24/08:00am 16.6 17.7 15.6 94 0.6 ENE 4 7 2 4 1014.6 1014.6 0.0
24/07:30am 15.2 16.4 13.9 92 0.7 CALM 0 0 0 0 1014.3 1014.3 0.0
24/07:00am 15.1 16.3 13.8 92 0.7 CALM 0 0 0 0 1014.2 1014.2 0.0
24/06:30am 15.9 17.5 14.8 93 0.6 CALM 0 0 0 0 1014.0 1014.0 0.0
24/06:00am 15.9 17.3 14.4 91 0.9 CALM 0 0 0 0 1013.7 1013.7 0.0
24/05:30am 16.2 17.7 14.6 90 0.9 CALM 0 0 0 0 1013.6 1013.6 0.0
24/05:00am 16.4 18.0 14.8 90 0.9 CALM 0 0 0 0 1013.6 1013.6 0.0
24/04:30am 16.9 18.5 14.9 88 1.2 CALM 0 0 0 0 1013.8 1013.8 0.0
24/04:00am 17.2 17.6 15.4 89 1.1 SE 7 9 4 5 1013.9 1013.9 0.0
24/03:30am 16.5 18.1 15.0 91 0.9 CALM 0 0 0 0 1014.0 1014.0 0.0
24/03:00am 16.9 18.6 15.1 89 1.0 CALM 0 0 0 0 1014.1 1014.1 0.0
24/02:30am 17.3 19.0 15.3 88 1.2 CALM 0 0 0 0 1014.2 1014.2 0.0
24/02:00am 17.9 19.6 15.3 85 1.5 CALM 0 0 0 0 1014.4 1014.4 0.0
24/01:30am 18.0 19.8 15.4 85 1.5 CALM 0 0 0 0 1014.5 1014.5 0.0
24/01:00am 19.0 20.9 15.7 81 2.0 CALM 0 6 0 3 1014.7 1014.7 0.0
24/12:30am 19.6 20.0 16.3 81 2.0 E 9 15 5 8 1014.7 1014.7 0.0
24/12:00am 19.5 20.6 16.5 83 1.8 SSW 6 9 3 5 1014.3 1014.3 0.0
 
Date/Time
EST
Temp
°C
App
Temp
°C
Dew
Point
°C
Rel
Hum
%
Delta-T
°C
Wind Press
QNH
hPa
Press
MSL
hPa
Rain since
9am
mm
Dir  Spd
km/h
Gust
km/h
Spd
kts
Gust
kts
23/11:30pm 19.4 20.3 16.2 82 1.9 S 6 7 3 4 1014.5 1014.5 0.0
23/11:00pm 19.2 20.1 16.1 82 1.8 SSW 6 7 3 4 1014.6 1014.6 0.0
23/10:30pm 19.7 21.9 16.5 82 1.9 CALM 0 0 0 0 1014.8 1014.8 0.0
23/10:00pm 19.8 21.9 16.3 80 2.1 CALM 0 0 0 0 1014.9 1014.9 0.0
23/09:30pm 20.1 22.2 16.3 79 2.3 CALM 0 0 0 0 1014.8 1014.8 0.0
23/09:00pm 20.5 22.6 16.3 77 2.5 CALM 0 0 0 0 1014.6 1014.6 0.0
23/08:30pm 21.4 23.8 17.0 76 2.7 CALM 0 0 0 0 1014.5 1014.5 0.0
23/08:00pm 22.0 23.5 16.7 72 3.2 WSW 4 6 2 3 1014.3 1014.3 0.0
23/07:30pm 22.8 23.8 16.8 69 3.7 WSW 7 9 4 5 1013.9 1013.9 0.0
23/07:00pm 24.0 24.6 16.8 64 4.4 W 9 13 5 7 1013.5 1013.5 0.0
23/06:30pm 25.1 26.2 14.6 52 6.3 ESE 2 7 1 4 1013.2 1013.2 0.0
23/06:00pm 27.4 26.9 12.6 40 8.6 ESE 7 11 4 6 1012.9 1012.9 0.0
23/05:30pm 28.7 27.8 12.6 37 9.4 ESE 9 13 5 7 1012.7 1012.7 0.0
23/05:00pm 29.4 28.0 12.3 34 10.0 ESE 11 17 6 9 1012.5 1012.4 0.0
23/04:30pm 29.6 27.3 11.6 33 10.4 SE 15 22 8 12 1012.4 1012.3 0.0
23/04:00pm 30.2 28.5 12.6 34 10.4 SSE 13 24 7 13 1012.4 1012.3 0.0
23/03:30pm 30.0 28.3 12.4 34 10.3 ESE 13 20 7 11 1012.5 1012.4 0.0
23/03:00pm 29.6 26.9 11.6 33 10.4 ESE 17 24 9 13 1012.6 1012.5 0.0
23/02:30pm 29.3 27.4 11.8 34 10.2 SE 13 22 7 12 1013.0 1013.0 0.0
23/02:00pm 29.0 26.5 12.4 36 9.7 E 17 24 9 13 1013.5 1013.5 0.0
23/01:30pm 29.6 27.3 12.9 35 9.9 ESE 17 28 9 15 1013.9 1013.9 0.0
23/01:00pm 28.5 26.8 12.4 37 9.4 ESE 13 22 7 12 1014.5 1014.5 0.0
23/12:30pm 29.1 27.0 13.7 38 9.2 SE 17 26 9 14 1014.9 1014.9 0.0
23/12:00pm 28.0 26.5 14.3 43 8.2 E 15 24 8 13 1015.6 1015.6 0.0
23/11:30am 27.5 25.7 14.5 45 7.8 E 17 26 9 14 1016.1 1016.1 0.0
23/11:00am 26.9 25.2 14.6 46 7.4 ENE 17 24 9 13 1016.4 1016.4 0.0
23/10:30am 25.8 23.9 15.2 52 6.4 E 19 32 10 17 1016.8 1016.8 0.0
23/10:00am 24.1 21.9 14.8 56 5.5 E 20 30 11 16 1017.0 1017.0 0.0
23/09:30am 24.0 23.5 15.8 60 5.0 E 13 20 7 11 1017.3 1017.3 0.0
23/09:00am 22.8 22.2 15.6 64 4.3 ESE 13 26 7 14 1017.4 1017.4 0.0
23/08:30am 20.7 20.7 15.3 71 3.2 ESE 9 13 5 7 1017.3 1017.3 0.0
23/08:00am 19.2 19.2 15.3 78 2.3 ESE 9 13 5 7 1016.9 1016.9 0.0
23/07:30am 17.8 18.1 14.9 83 1.7 ESE 7 9 4 5 1016.6 1016.6 0.0
23/07:00am 16.3 16.4 14.0 86 1.3 ESE 6 7 3 4 1016.4 1016.4 0.0
23/06:30am 17.3 17.6 14.6 84 1.6 E 6 7 3 4 1016.0 1016.0 0.0
23/06:00am 17.4 17.8 14.7 84 1.6 E 6 7 3 4 1015.9 1015.9 0.0
23/05:30am 17.9 18.1 14.6 81 1.9 E 7 9 4 5 1015.9 1015.9 0.0
23/05:00am 18.3 18.5 14.8 80 2.0 E 7 9 4 5 1015.7 1015.7 0.0
23/04:30am 18.3 18.7 15.2 82 1.8 E 7 11 4 6 1015.6 1015.6 0.0
23/04:00am 17.8 18.1 14.9 83 1.7 SE 7 9 4 5 1015.4 1015.4 0.0
23/03:30am 17.5 18.3 14.8 84 1.6 E 4 6 2 3 1015.6 1015.6 0.0
23/03:00am 18.1 19.0 15.2 83 1.7 E 4 6 2 3 1015.6 1015.6 0.0
23/02:30am 18.9 19.3 14.8 77 2.4 ENE 6 7 3 4 1015.7 1015.7 0.0
23/02:00am 19.6 20.1 15.0 75 2.7 E 6 9 3 5 1015.7 1015.7 0.0
23/01:30am 20.0 20.4 15.4 75 2.7 E 7 9 4 5 1015.9 1015.9 0.0
23/01:00am 21.1 21.6 15.0 68 3.6 ENE 6 7 3 4 1016.1 1016.1 0.0
23/12:30am 22.2 22.5 15.1 64 4.2 E 7 11 4 6 1016.1 1016.1 0.0
23/12:00am 22.6 23.0 15.2 63 4.4 E 7 13 4 7 1016.3 1016.3 0.0
 
Date/Time
EST
Temp
°C
App
Temp
°C
Dew
Point
°C
Rel
Hum
%
Delta-T
°C
Wind Press
QNH
hPa
Press
MSL
hPa
Rain since
9am
mm
Dir  Spd
km/h
Gust
km/h
Spd
kts
Gust
kts
22/11:30pm 23.1 23.5 15.2 61 4.7 E 7 11 4 6 1016.4 1016.4 0.0
22/11:00pm 23.6 23.9 15.1 59 5.1 E 7 13 4 7 1016.5 1016.5 0.0
22/10:30pm 23.9 24.2 15.1 58 5.3 ESE 7 9 4 5 1016.7 1016.7 0.0
22/10:00pm 24.7 24.7 15.3 56 5.7 E 9 11 5 6 1016.6 1016.6 0.0
22/09:30pm 24.3 24.6 15.0 56 5.6 ESE 7 13 4 7 1016.5 1016.5 0.0
22/09:00pm 25.0 24.4 13.5 48 6.7 ESE 9 13 5 7 1016.2 1016.2 0.0

Other Formats:

Comma delimited format used in spreadsheet applications
http://www.bom.gov.au/fwo/IDQ60801/IDQ60801.94268.axf

JavaScript Object Notation format (JSON) in row-major order
http://www.bom.gov.au/fwo/IDQ60801/IDQ60801.94268.json